createdAt,value
2018-04-07T00:01:59.367Z,93918.17
2018-04-07T00:04:26.913Z,93923.12
2018-04-07T00:06:54.486Z,93919.43
2018-04-07T00:09:22.037Z,93923.48
2018-04-07T00:11:49.574Z,93921.05
2018-04-07T00:14:17.207Z,93920.63
2018-04-07T00:16:44.746Z,93919.25
2018-04-07T00:19:12.294Z,93916.76
2018-04-07T00:21:39.967Z,93912.47
2018-04-07T00:24:07.719Z,93917.52
2018-04-07T00:26:35.266Z,93922.83
2018-04-07T00:29:02.855Z,93922.84
2018-04-07T00:31:30.401Z,93920.81
2018-04-07T00:33:57.943Z,93922.94
2018-04-07T00:36:25.625Z,93925.75
2018-04-07T00:38:53.182Z,93915.31
2018-04-07T00:41:20.727Z,93917.34
2018-04-07T00:43:48.444Z,93918.23
2018-04-07T00:46:16.005Z,93922.77
2018-04-07T00:48:43.545Z,93919.78
2018-04-07T00:51:11.270Z,93914.80
2018-04-07T00:53:38.832Z,93927.78
2018-04-07T00:56:06.370Z,93925.58
2018-04-07T00:58:33.947Z,93919.33
2018-04-07T01:01:01.511Z,93922.23
2018-04-07T01:03:29.049Z,93924.38
2018-04-07T01:05:56.641Z,93926.95
2018-04-07T01:08:24.194Z,93926.52
2018-04-07T01:10:51.737Z,93935.22
2018-04-07T01:13:19.329Z,93928.19
2018-04-07T01:15:46.871Z,93932.31
2018-04-07T01:18:14.422Z,93931.45
2018-04-07T01:20:42.286Z,93936.06
2018-04-07T01:23:09.843Z,93938.03
2018-04-07T01:25:37.394Z,93945.48
2018-04-07T01:28:05.060Z,93950.55
2018-04-07T01:30:32.629Z,93953.11
2018-04-07T01:33:00.177Z,93953.39
2018-04-07T01:35:27.765Z,93954.46
2018-04-07T01:37:55.312Z,93955.62
2018-04-07T01:40:22.854Z,93955.59
2018-04-07T01:42:50.587Z,93962.23
2018-04-07T01:45:18.121Z,93962.98
2018-04-07T01:47:45.658Z,93968.00
2018-04-07T01:50:13.238Z,93967.30
2018-04-07T01:52:40.786Z,93968.66
2018-04-07T01:55:08.325Z,93966.11
2018-04-07T01:57:36.181Z,93967.34
2018-04-07T02:00:03.794Z,93970.51
2018-04-07T02:02:31.342Z,93960.03
2018-04-07T02:04:58.928Z,93963.83
2018-04-07T02:07:26.465Z,93964.66
2018-04-07T02:09:54.004Z,93958.88
2018-04-07T02:12:21.568Z,93961.75
2018-04-07T02:14:49.100Z,93962.64
2018-04-07T02:17:16.638Z,93965.97
2018-04-07T02:19:44.231Z,93974.69
2018-04-07T02:22:11.766Z,93975.04
2018-04-07T02:24:39.324Z,93970.86
2018-04-07T02:27:07.020Z,93971.69
2018-04-07T02:29:34.559Z,93970.97
2018-04-07T02:32:02.105Z,93973.02
2018-04-07T02:34:29.698Z,93970.86
2018-04-07T02:36:57.243Z,93980.05
2018-04-07T02:39:24.792Z,93973.48
2018-04-07T02:41:52.654Z,93978.60
2018-04-07T02:44:20.194Z,93977.64
2018-04-07T02:46:47.747Z,93978.09
2018-04-07T02:49:15.623Z,93974.67
2018-04-07T02:51:43.166Z,93983.91
2018-04-07T02:54:10.717Z,93975.58
2018-04-07T02:56:38.435Z,93975.32
2018-04-07T02:59:05.989Z,93973.23
2018-04-07T03:01:33.524Z,93982.42
2018-04-07T03:04:01.243Z,93983.68
2018-04-07T03:06:28.789Z,93984.58
2018-04-07T03:08:56.333Z,93988.92
2018-04-07T03:11:23.932Z,93995.30
2018-04-07T03:13:51.468Z,93992.86
2018-04-07T03:16:19.010Z,93996.62
2018-04-07T03:18:46.885Z,93996.97
2018-04-07T03:21:14.432Z,93996.91
2018-04-07T03:23:41.974Z,94006.50
2018-04-07T03:26:09.567Z,94008.53
2018-04-07T03:28:37.109Z,94003.84
2018-04-07T03:31:04.680Z,94000.13
2018-04-07T03:33:32.285Z,94007.58
2018-04-07T03:35:59.826Z,94009.31
2018-04-07T03:38:27.374Z,94016.15
2018-04-07T03:40:54.944Z,94010.69
2018-04-07T03:43:22.488Z,94017.34
2018-04-07T03:45:50.046Z,94014.67
2018-04-07T03:48:17.780Z,94012.53
2018-04-07T03:50:45.350Z,94020.20
2018-04-07T03:53:12.895Z,94022.55
2018-04-07T03:55:40.457Z,94017.61
2018-04-07T03:58:08.000Z,94023.14
2018-04-07T04:00:35.565Z,94030.05
2018-04-07T04:03:03.615Z,94033.82
2018-04-07T04:05:31.209Z,94030.84
2018-04-07T04:07:58.764Z,94032.55
2018-04-07T04:10:26.494Z,94039.64
2018-04-07T04:12:54.034Z,94038.36
2018-04-07T04:15:21.603Z,94037.51
2018-04-07T04:17:49.190Z,94048.25
2018-04-07T04:20:16.747Z,94050.50
2018-04-07T04:22:44.290Z,94041.33
2018-04-07T04:25:11.862Z,94046.75
2018-04-07T04:27:39.402Z,94055.99
2018-04-07T04:30:06.949Z,94060.22
2018-04-07T04:32:34.521Z,94061.79
2018-04-07T04:35:02.073Z,94067.51
2018-04-07T04:37:29.623Z,94070.74
2018-04-07T04:39:57.224Z,94070.67
2018-04-07T04:42:24.764Z,94068.12
2018-04-07T04:44:52.303Z,94067.77
2018-04-07T04:47:19.846Z,94071.80
2018-04-07T04:49:47.396Z,94065.84
2018-04-07T04:52:15.109Z,94067.41
2018-04-07T04:54:42.648Z,94069.91
2018-04-07T04:57:10.196Z,94068.10
2018-04-07T04:59:37.937Z,94068.84
2018-04-07T05:02:05.487Z,94072.75
2018-04-07T05:04:33.029Z,94073.04
2018-04-07T05:07:00.745Z,94067.09
2018-04-07T05:09:28.312Z,94068.53
2018-04-07T05:11:55.861Z,94067.48
2018-04-07T05:14:23.588Z,94073.92
2018-04-07T05:16:51.139Z,94062.51
2018-04-07T05:19:18.685Z,94063.90
2018-04-07T05:21:46.464Z,94054.42
2018-04-07T05:24:14.102Z,94060.83
2018-04-07T05:26:41.628Z,94064.94
2018-04-07T05:29:09.202Z,94071.59
2018-04-07T05:31:36.755Z,94068.03
2018-04-07T05:34:04.326Z,94075.56
2018-04-07T05:36:32.046Z,94073.50
2018-04-07T05:38:59.594Z,94075.56
2018-04-07T05:41:27.140Z,94081.68
2018-04-07T05:43:54.951Z,94081.28
2018-04-07T05:46:22.508Z,94079.34
2018-04-07T05:48:50.063Z,94078.73
2018-04-07T05:51:17.998Z,94083.31
2018-04-07T05:53:45.546Z,94088.06
2018-04-07T05:56:13.123Z,94086.83
2018-04-07T05:58:40.696Z,94092.14
2018-04-07T06:01:08.492Z,94093.03
2018-04-07T06:03:36.065Z,94095.41
2018-04-07T06:06:03.951Z,94092.87
2018-04-07T06:08:31.497Z,94093.23
2018-04-07T06:10:59.054Z,94100.00
2018-04-07T06:13:26.682Z,94098.03
2018-04-07T06:15:54.229Z,94102.48
2018-04-07T06:18:21.789Z,94097.13
2018-04-07T06:20:49.490Z,94107.73
2018-04-07T06:23:17.046Z,94107.63
2018-04-07T06:25:44.590Z,94110.07
2018-04-07T06:28:12.199Z,94116.70
2018-04-07T06:30:39.735Z,94120.50
2018-04-07T06:33:07.282Z,94123.23
2018-04-07T06:35:34.859Z,94119.77
2018-04-07T06:38:02.421Z,94123.84
2018-04-07T06:40:29.971Z,94123.36
2018-04-07T06:42:57.590Z,94122.78
2018-04-07T06:45:25.146Z,94129.16
2018-04-07T06:47:52.711Z,94127.30
2018-04-07T06:50:20.426Z,94123.57
2018-04-07T06:52:47.978Z,94129.18
2018-04-07T06:55:15.533Z,94125.77
2018-04-07T06:57:43.393Z,94134.25
2018-04-07T07:00:10.930Z,94132.50
2018-04-07T07:02:38.473Z,94130.88
2018-04-07T07:05:06.103Z,94134.19
2018-04-07T07:07:33.656Z,94142.94
2018-04-07T07:10:01.219Z,94138.31
2018-04-07T07:12:28.791Z,94140.95
2018-04-07T07:14:56.365Z,94147.42
2018-04-07T07:17:23.913Z,94148.58
2018-04-07T07:19:51.506Z,94150.69
2018-04-07T07:22:19.050Z,94157.92
2018-04-07T07:24:46.617Z,94157.28
2018-04-07T07:27:14.220Z,94160.57
2018-04-07T07:29:41.762Z,94159.73
2018-04-07T07:32:09.313Z,94160.39
2018-04-07T07:34:37.219Z,94163.28
2018-04-07T07:37:04.756Z,94165.15
2018-04-07T07:39:32.313Z,94167.95
2018-04-07T07:42:00.103Z,94166.57
2018-04-07T07:44:27.638Z,94167.88
2018-04-07T07:46:55.195Z,94166.98
2018-04-07T07:49:22.959Z,94168.31
2018-04-07T07:51:50.491Z,94177.27
2018-04-07T07:54:18.031Z,94175.75
2018-04-07T07:56:45.610Z,94175.48
2018-04-07T07:59:13.158Z,94172.47
2018-04-07T08:01:40.713Z,94175.19
2018-04-07T08:04:08.305Z,94166.48
2018-04-07T08:06:35.863Z,94161.72
2018-04-07T08:09:03.473Z,94167.86
2018-04-07T08:11:31.054Z,94171.03
2018-04-07T08:13:58.601Z,94168.44
2018-04-07T08:16:26.156Z,94176.84
2018-04-07T08:18:53.827Z,94175.91
2018-04-07T08:21:21.378Z,94177.41
2018-04-07T08:23:48.914Z,94178.47
2018-04-07T08:26:16.490Z,94180.06
2018-04-07T08:28:44.028Z,94179.63
2018-04-07T08:31:11.596Z,94178.30
2018-04-07T08:33:39.181Z,94179.06
2018-04-07T08:36:06.728Z,94181.39
2018-04-07T08:38:34.321Z,94172.66
2018-04-07T08:41:01.923Z,94182.41
2018-04-07T08:43:29.507Z,94183.47
2018-04-07T08:45:57.071Z,94176.11
2018-04-07T08:48:24.646Z,94180.66
2018-04-07T08:50:52.198Z,94180.03
2018-04-07T08:53:19.861Z,94180.66
2018-04-07T08:55:47.418Z,94185.87
2018-04-07T08:58:14.963Z,94180.20
2018-04-07T09:00:42.703Z,94181.98
2018-04-07T09:03:10.242Z,94181.17
2018-04-07T09:05:37.819Z,94184.87
2018-04-07T09:08:05.571Z,94187.01
2018-04-07T09:10:33.117Z,94174.62
2018-04-07T09:13:00.664Z,94182.44
2018-04-07T09:15:28.535Z,94181.67
2018-04-07T09:17:56.072Z,94180.80
2018-04-07T09:20:23.627Z,94186.66
2018-04-07T09:22:51.344Z,94184.35
2018-04-07T09:25:18.892Z,94187.70
2018-04-07T09:27:46.438Z,94197.84
2018-04-07T09:30:14.143Z,94182.88
2018-04-07T09:32:41.711Z,94175.95
2018-04-07T09:35:09.267Z,94179.42
2018-04-07T09:37:36.844Z,94177.11
2018-04-07T09:40:04.390Z,94179.78
2018-04-07T09:42:31.950Z,94178.84
2018-04-07T09:44:59.481Z,94169.52
2018-04-07T09:47:27.036Z,94173.73
2018-04-07T09:49:56.068Z,94165.95
2018-04-07T09:52:23.626Z,94163.06
2018-04-07T09:54:51.185Z,94168.88
2018-04-07T09:57:18.762Z,94171.94
2018-04-07T09:59:46.310Z,94173.00
2018-04-07T10:02:19.727Z,94166.34
2018-04-07T10:04:47.289Z,94163.66
2018-04-07T10:07:14.841Z,94168.06
2018-04-07T10:12:36.855Z,94164.60
2018-04-07T10:15:04.418Z,94166.16
2018-04-07T10:17:31.959Z,94160.36
2018-04-07T10:19:59.525Z,94164.78
2018-04-07T10:22:27.082Z,94157.11
2018-04-07T10:24:54.642Z,94155.10
2018-04-07T10:27:22.229Z,94151.98
2018-04-07T10:29:49.775Z,94158.54
2018-04-07T10:32:17.345Z,94146.81
2018-04-07T10:34:45.228Z,94146.46
2018-04-07T10:37:12.790Z,94139.89
2018-04-07T10:39:40.340Z,94134.23
2018-04-07T10:42:08.029Z,94132.34
2018-04-07T10:44:35.600Z,94128.75
2018-04-07T10:47:03.133Z,94121.38
2018-04-07T10:49:31.009Z,94132.77
2018-04-07T10:51:58.569Z,94130.13
2018-04-07T10:54:26.106Z,94126.40
2018-04-07T10:56:53.716Z,94127.38
2018-04-07T10:59:21.264Z,94127.91
2018-04-07T11:01:48.827Z,94132.23
2018-04-07T11:04:16.412Z,94121.11
2018-04-07T11:06:43.966Z,94125.19
2018-04-07T11:09:11.510Z,94124.80
2018-04-07T11:11:39.193Z,94127.86
2018-04-07T11:14:06.731Z,94128.54
2018-04-07T11:16:34.313Z,94124.98
2018-04-07T11:19:01.900Z,94128.86
2018-04-07T11:21:29.447Z,94126.71
2018-04-07T11:23:57.001Z,94130.00
2018-04-07T11:26:24.733Z,94127.56
2018-04-07T11:28:52.309Z,94129.56
2018-04-07T11:31:19.859Z,94124.67
2018-04-07T11:33:47.734Z,94121.40
2018-04-07T11:36:15.277Z,94119.56
2018-04-07T11:38:42.835Z,94109.75
2018-04-07T11:41:10.465Z,94115.79
2018-04-07T11:43:38.017Z,94111.05
2018-04-07T11:46:05.556Z,94120.92
2018-04-07T11:48:33.138Z,94113.45
2018-04-07T11:51:00.681Z,94120.85
2018-04-07T11:53:28.226Z,94120.19
2018-04-07T11:55:55.789Z,94117.79
2018-04-07T11:58:23.335Z,94131.11
2018-04-07T12:00:50.921Z,94120.66
2018-04-07T12:03:18.646Z,94125.71
2018-04-07T12:05:46.185Z,94122.88
2018-04-07T12:08:13.730Z,94124.27
2018-04-07T12:10:41.293Z,94115.70
2018-04-07T12:13:08.830Z,94116.41
2018-04-07T12:15:36.374Z,94113.72
2018-04-07T12:18:03.982Z,94107.95
2018-04-07T12:20:31.538Z,94106.34
2018-04-07T12:22:59.092Z,94106.81
2018-04-07T12:25:26.657Z,94104.91
2018-04-07T12:27:54.222Z,94102.61
2018-04-07T12:30:21.786Z,94094.77
2018-04-07T12:32:49.473Z,94091.50
2018-04-07T12:35:17.016Z,94097.39
2018-04-07T12:37:44.552Z,94085.04
2018-04-07T12:40:12.262Z,94099.08
2018-04-07T12:42:39.809Z,94095.34
2018-04-07T12:45:07.357Z,94093.32
2018-04-07T12:47:34.970Z,94093.41
2018-04-07T12:50:02.512Z,94090.81
2018-04-07T12:52:30.058Z,94085.87
2018-04-07T12:54:57.655Z,94091.06
2018-04-07T12:57:25.204Z,94085.56
2018-04-07T12:59:52.743Z,94081.97
2018-04-07T13:02:20.318Z,94085.67
2018-04-07T13:04:47.888Z,94086.55
2018-04-07T13:07:15.457Z,94089.64
2018-04-07T13:09:43.126Z,94080.78
2018-04-07T13:12:10.677Z,94084.97
2018-04-07T13:14:38.223Z,94085.36
2018-04-07T13:17:05.918Z,94082.98
2018-04-07T13:19:33.482Z,94082.52
2018-04-07T13:22:01.029Z,94086.70
2018-04-07T13:24:28.744Z,94083.25
2018-04-07T13:26:56.322Z,94079.75
2018-04-07T13:29:23.863Z,94084.53
2018-04-07T13:31:51.465Z,94082.06
2018-04-07T13:34:19.011Z,94086.59
2018-04-07T13:36:46.558Z,94081.07
2018-04-07T13:39:14.426Z,94084.47
2018-04-07T13:41:41.981Z,94078.87
2018-04-07T13:44:09.547Z,94086.75
2018-04-07T13:46:37.089Z,94089.83
2018-04-07T13:49:04.644Z,94086.66
2018-04-07T13:51:32.246Z,94082.78
2018-04-07T13:53:59.797Z,94079.23
2018-04-07T13:56:27.342Z,94089.56
2018-04-07T13:58:55.112Z,94090.13
2018-04-07T14:01:22.646Z,94083.08
2018-04-07T14:03:50.178Z,94085.30
2018-04-07T14:06:17.885Z,94078.72
2018-04-07T14:08:45.426Z,94087.67
2018-04-07T14:11:12.974Z,94083.62
2018-04-07T14:13:40.694Z,94085.94
2018-04-07T14:16:08.246Z,94084.55
2018-04-07T14:18:35.776Z,94089.55
2018-04-07T14:21:03.362Z,94096.50
2018-04-07T14:23:30.905Z,94090.09
2018-04-07T14:25:58.462Z,94098.05
2018-04-07T14:28:26.049Z,94106.32
2018-04-07T14:30:53.603Z,94103.34
2018-04-07T14:33:21.139Z,94100.66
2018-04-07T14:35:49.035Z,94103.94
2018-04-07T14:38:16.585Z,94100.29
2018-04-07T14:40:44.137Z,94103.27
2018-04-07T14:43:11.710Z,94110.98
2018-04-07T14:45:39.253Z,94109.95
2018-04-07T14:48:06.815Z,94111.47
2018-04-07T14:50:34.677Z,94115.09
2018-04-07T14:53:02.239Z,94114.44
2018-04-07T14:55:29.784Z,94116.64
2018-04-07T14:57:57.382Z,94117.80
2018-04-07T15:00:24.930Z,94120.33
2018-04-07T15:02:52.476Z,94117.42
2018-04-07T15:05:20.041Z,94134.19
2018-04-07T15:07:47.587Z,94121.84
2018-04-07T15:10:15.130Z,94129.19
2018-04-07T15:12:42.713Z,94127.38
2018-04-07T15:15:10.248Z,94128.75
2018-04-07T15:17:37.788Z,94129.30
2018-04-07T15:20:05.602Z,94133.04
2018-04-07T15:22:33.146Z,94135.09
2018-04-07T15:25:00.692Z,94133.38
2018-04-07T15:27:28.856Z,94138.98
2018-04-07T15:29:56.410Z,94136.95
2018-04-07T15:32:23.952Z,94137.19
2018-04-07T15:34:51.693Z,94136.51
2018-04-07T15:37:19.246Z,94141.69
2018-04-07T15:39:46.835Z,94141.45
2018-04-07T15:42:14.389Z,94138.73
2018-04-07T15:44:41.937Z,94146.54
2018-04-07T15:47:09.485Z,94145.73
2018-04-07T15:49:37.360Z,94145.05
2018-04-07T15:52:04.923Z,94148.16
2018-04-07T15:54:32.480Z,94143.84
2018-04-07T15:57:00.345Z,94143.32
2018-04-07T15:59:27.911Z,94142.94
2018-04-07T16:01:55.528Z,94140.84
2018-04-07T16:04:23.252Z,94150.36
2018-04-07T16:06:50.820Z,94149.20
2018-04-07T16:09:18.398Z,94150.44
2018-04-07T16:11:46.024Z,94153.95
2018-04-07T16:14:13.595Z,94151.30
2018-04-07T16:16:41.167Z,94150.25
2018-04-07T16:19:08.937Z,94156.45
2018-04-07T16:21:36.475Z,94155.17
2018-04-07T16:24:04.021Z,94158.81
2018-04-07T16:26:31.756Z,94163.75
2018-04-07T16:28:59.310Z,94166.75
2018-04-07T16:31:26.879Z,94163.83
2018-04-07T16:33:54.562Z,94160.56
2018-04-07T16:36:22.107Z,94159.47
2018-04-07T16:38:49.661Z,94162.47
2018-04-07T16:41:17.232Z,94165.45
2018-04-07T16:43:44.774Z,94171.76
2018-04-07T16:46:12.336Z,94171.98
2018-04-07T16:48:39.964Z,94176.06
2018-04-07T16:51:07.516Z,94176.06
2018-04-07T16:53:35.086Z,94176.19
2018-04-07T16:56:02.749Z,94173.05
2018-04-07T16:58:30.297Z,94174.15
2018-04-07T17:00:57.859Z,94173.44
2018-04-07T17:03:25.448Z,94183.52
2018-04-07T17:05:52.997Z,94180.97
2018-04-07T17:08:20.553Z,94178.80
2018-04-07T17:10:48.398Z,94177.46
2018-04-07T17:13:15.958Z,94182.44
2018-04-07T17:15:43.509Z,94189.41
2018-04-07T17:18:11.083Z,94191.27
2018-04-07T17:20:39.271Z,94191.25
2018-04-07T17:23:06.823Z,94193.84
2018-04-07T17:25:34.458Z,94192.29
2018-04-07T17:28:02.010Z,94199.89
2018-04-07T17:30:29.564Z,94196.80
2018-04-07T17:32:57.278Z,94201.91
2018-04-07T17:35:24.837Z,94211.03
2018-04-07T17:37:52.393Z,94213.12
2018-04-07T17:40:19.971Z,94219.77
2018-04-07T17:42:47.530Z,94223.38
2018-04-07T17:45:15.100Z,94225.35
2018-04-07T17:47:42.676Z,94222.23
2018-04-07T17:50:10.271Z,94226.86
2018-04-07T17:52:37.996Z,94225.45
2018-04-07T17:55:05.586Z,94226.88
2018-04-07T17:57:33.135Z,94226.80
2018-04-07T18:00:00.818Z,94234.58
2018-04-07T18:02:28.370Z,94240.22
2018-04-07T18:04:55.937Z,94241.70
2018-04-07T18:07:23.533Z,94243.52
2018-04-07T18:09:51.103Z,94249.36
2018-04-07T18:12:18.666Z,94250.50
2018-04-07T18:14:46.252Z,94254.94
2018-04-07T18:17:13.878Z,94259.33
2018-04-07T18:19:41.437Z,94264.09
2018-04-07T18:22:09.028Z,94261.78
2018-04-07T18:24:36.570Z,94266.93
2018-04-07T18:27:04.145Z,94269.69
2018-04-07T18:29:31.868Z,94272.88
2018-04-07T18:31:59.418Z,94266.34
2018-04-07T18:34:26.983Z,94270.33
2018-04-07T18:36:54.730Z,94272.09
2018-04-07T18:39:22.299Z,94266.39
2018-04-07T18:41:49.852Z,94269.05
2018-04-07T18:44:17.430Z,94275.08
2018-04-07T18:46:44.979Z,94280.66
2018-04-07T18:49:12.525Z,94284.10
2018-04-07T18:51:40.110Z,94290.50
2018-04-07T18:54:07.694Z,94292.30
2018-04-07T18:56:35.246Z,94289.86
2018-04-07T18:59:03.503Z,94285.88
2018-04-07T19:01:31.190Z,94299.36
2018-04-07T19:03:58.738Z,94292.31
2018-04-07T19:06:26.471Z,94295.41
2018-04-07T19:08:54.042Z,94298.88
2018-04-07T19:11:21.617Z,94298.98
2018-04-07T19:13:49.211Z,94293.71
2018-04-07T19:16:16.763Z,94292.59
2018-04-07T19:18:44.293Z,94295.62
2018-04-07T19:21:12.130Z,94291.17
2018-04-07T19:23:39.670Z,94290.88
2018-04-07T19:26:07.202Z,94286.74
2018-04-07T19:28:34.906Z,94293.48
2018-04-07T19:31:02.487Z,94291.87
2018-04-07T19:33:30.017Z,94297.81
2018-04-07T19:35:57.676Z,94287.48
2018-04-07T19:38:25.261Z,94295.85
2018-04-07T19:40:52.815Z,94293.76
2018-04-07T19:43:20.720Z,94296.27
2018-04-07T19:45:48.283Z,94294.28
2018-04-07T19:48:15.825Z,94291.47
2018-04-07T19:50:43.809Z,94294.07
2018-04-07T19:53:11.352Z,94295.27
2018-04-07T19:55:38.893Z,94293.66
2018-04-07T19:58:06.486Z,94298.25
2018-04-07T20:00:34.028Z,94294.50
2018-04-07T20:03:01.596Z,94291.05
2018-04-07T20:05:29.314Z,94293.18
2018-04-07T20:07:56.878Z,94289.34
2018-04-07T20:10:24.435Z,94297.11
2018-04-07T20:12:52.047Z,94292.77
2018-04-07T20:15:19.598Z,94288.32
2018-04-07T20:17:47.139Z,94282.46
2018-04-07T20:20:15.015Z,94288.22
2018-04-07T20:22:42.574Z,94286.84
2018-04-07T20:25:10.114Z,94283.76
2018-04-07T20:27:37.766Z,94284.02
2018-04-07T20:30:05.318Z,94281.82
2018-04-07T20:32:32.852Z,94279.18
2018-04-07T20:35:00.431Z,94279.34
2018-04-07T20:37:27.968Z,94289.19
2018-04-07T20:39:55.526Z,94288.05
2018-04-07T20:42:28.153Z,94292.47
2018-04-07T20:44:55.689Z,94289.80
2018-04-07T20:47:24.028Z,94292.16
2018-04-07T20:49:52.390Z,94284.72
2018-04-07T20:52:19.927Z,94285.54
2018-04-07T20:54:47.524Z,94289.75
2018-04-07T20:57:15.392Z,94291.97
2018-04-07T20:59:42.933Z,94290.77
2018-04-07T21:02:10.502Z,94291.56
2018-04-07T21:04:38.228Z,94290.28
2018-04-07T21:07:05.796Z,94282.34
2018-04-07T21:09:33.339Z,94293.44
2018-04-07T21:12:01.009Z,94284.41
2018-04-07T21:14:28.573Z,94283.03
2018-04-07T21:16:56.123Z,94284.27
2018-04-07T21:19:23.985Z,94282.10
2018-04-07T21:21:51.519Z,94283.30
2018-04-07T21:24:19.067Z,94285.28
2018-04-07T21:26:46.757Z,94280.45
2018-04-07T21:29:14.293Z,94283.31
2018-04-07T21:31:41.853Z,94286.97
2018-04-07T21:34:09.433Z,94287.31
2018-04-07T21:36:37.013Z,94294.36
2018-04-07T21:39:04.599Z,94289.83
2018-04-07T21:41:32.174Z,94296.31
2018-04-07T21:43:59.725Z,94294.36
2018-04-07T21:46:27.294Z,94296.08
2018-04-07T21:48:54.908Z,94299.02
2018-04-07T21:51:22.446Z,94303.08
2018-04-07T21:53:49.998Z,94298.01
2018-04-07T21:56:17.585Z,94293.19
2018-04-07T21:58:45.160Z,94293.92
2018-04-07T22:01:12.714Z,94295.38
2018-04-07T22:03:40.452Z,94292.94
2018-04-07T22:06:08.010Z,94298.81
2018-04-07T22:08:35.566Z,94298.13
2018-04-07T22:11:03.166Z,94295.66
2018-04-07T22:13:30.711Z,94287.77
2018-04-07T22:15:58.245Z,94286.68
2018-04-07T22:18:25.971Z,94289.94
2018-04-07T22:20:53.517Z,94291.95
2018-04-07T22:23:21.068Z,94289.95
2018-04-07T22:25:48.957Z,94287.71
2018-04-07T22:28:16.504Z,94284.22
2018-04-07T22:30:44.077Z,94287.42
2018-04-07T22:33:11.767Z,94284.91
2018-04-07T22:35:39.339Z,94286.31
2018-04-07T22:38:06.897Z,94279.18
2018-04-07T22:40:34.782Z,94281.72
2018-04-07T22:43:02.347Z,94283.39
2018-04-07T22:45:29.896Z,94285.95
2018-04-07T22:47:57.439Z,94282.95
2018-04-07T22:50:24.982Z,94280.17
2018-04-07T22:52:52.668Z,94280.66
2018-04-07T22:55:20.213Z,94277.56
2018-04-07T22:57:47.749Z,94274.83
2018-04-07T23:00:19.325Z,94271.91
2018-04-07T23:02:46.872Z,94273.66
2018-04-07T23:05:14.417Z,94268.42
2018-04-07T23:07:43.222Z,94266.86
2018-04-07T23:10:10.765Z,94275.44
2018-04-07T23:12:38.330Z,94279.63
2018-04-07T23:15:06.205Z,94280.46
2018-04-07T23:17:33.749Z,94285.33
2018-04-07T23:20:01.300Z,94281.55
2018-04-07T23:22:28.887Z,94281.67
2018-04-07T23:24:56.430Z,94281.25
2018-04-07T23:27:24.010Z,94270.27
2018-04-07T23:29:51.698Z,94272.38
2018-04-07T23:32:19.242Z,94267.55
2018-04-07T23:34:46.785Z,94272.45
2018-04-07T23:37:14.568Z,94265.52
2018-04-07T23:39:42.105Z,94260.38
2018-04-07T23:42:09.655Z,94260.31
2018-04-07T23:44:37.231Z,94258.62
2018-04-07T23:47:04.769Z,94258.03
2018-04-07T23:49:32.353Z,94252.34
2018-04-07T23:52:00.083Z,94256.88
2018-04-07T23:54:27.636Z,94252.90
2018-04-07T23:56:55.173Z,94257.38
2018-04-07T23:59:22.781Z,94244.19
